createdAt,value
2019-02-28T00:00:56.476Z,23.50
2019-02-28T00:01:56.441Z,23.65
2019-02-28T00:02:56.383Z,23.65
2019-02-28T00:03:58.009Z,23.63
2019-02-28T00:04:56.304Z,23.62
2019-02-28T00:05:56.359Z,23.65
2019-02-28T00:06:56.234Z,23.51
2019-02-28T00:07:56.180Z,23.58
2019-02-28T00:08:56.133Z,23.55
2019-02-28T00:09:57.391Z,23.50
2019-02-28T00:10:56.029Z,23.51
2019-02-28T00:11:55.983Z,23.47
2019-02-28T00:12:55.952Z,23.48
2019-02-28T00:13:56.635Z,23.51
2019-02-28T00:14:58.622Z,23.56
2019-02-28T00:15:55.791Z,23.58
2019-02-28T00:16:55.761Z,23.62
2019-02-28T00:17:55.713Z,23.65
2019-02-28T00:18:55.679Z,23.59
2019-02-28T00:19:58.003Z,23.69
2019-02-28T00:20:55.567Z,23.61
2019-02-28T00:21:55.542Z,23.59
2019-02-28T00:22:55.500Z,23.59
2019-02-28T00:23:57.275Z,23.63
2019-02-28T00:24:55.395Z,23.61
2019-02-28T00:25:55.336Z,23.61
2019-02-28T00:26:55.302Z,23.50
2019-02-28T00:27:55.258Z,23.43
2019-02-28T00:28:57.056Z,23.47
2019-02-28T00:29:55.155Z,23.51
2019-02-28T00:30:55.130Z,23.47
2019-02-28T00:31:55.078Z,23.54
2019-02-28T00:32:56.390Z,23.55
2019-02-28T00:33:54.973Z,23.58
2019-02-28T00:34:54.959Z,23.50
2019-02-28T00:35:54.982Z,23.50
2019-02-28T00:36:54.849Z,23.46
2019-02-28T00:37:56.648Z,23.50
2019-02-28T00:38:54.754Z,23.54
2019-02-28T00:39:54.721Z,23.48
2019-02-28T00:40:54.665Z,23.43
2019-02-28T00:41:54.709Z,23.36
2019-02-28T00:42:54.576Z,23.41
2019-02-28T00:43:56.841Z,23.43
2019-02-28T00:44:54.473Z,23.44
2019-02-28T00:45:54.439Z,23.41
2019-02-28T00:46:54.395Z,23.34
2019-02-28T00:47:54.445Z,23.32
2019-02-28T00:48:54.291Z,23.46
2019-02-28T00:49:55.631Z,23.43
2019-02-28T00:50:54.213Z,23.40
2019-02-28T00:51:54.166Z,23.48
2019-02-28T00:52:54.117Z,23.55
2019-02-28T00:53:54.181Z,23.54
2019-02-28T00:54:54.054Z,23.61
2019-02-28T00:55:53.972Z,23.65
2019-02-28T00:56:53.953Z,23.65
2019-02-28T00:57:55.420Z,23.62
2019-02-28T00:58:53.858Z,23.62
2019-02-28T00:59:53.903Z,23.61
2019-02-28T01:00:53.772Z,23.61
2019-02-28T01:01:53.712Z,23.61
2019-02-28T01:02:53.751Z,23.63
2019-02-28T01:03:53.618Z,23.65
2019-02-28T01:04:53.568Z,23.62
2019-02-28T01:05:53.642Z,23.68
2019-02-28T01:06:53.485Z,23.65
2019-02-28T01:07:53.427Z,23.65
2019-02-28T01:08:56.113Z,23.62
2019-02-28T01:09:53.345Z,23.66
2019-02-28T01:10:53.303Z,23.61
2019-02-28T01:11:53.245Z,23.63
2019-02-28T01:12:54.567Z,23.62
2019-02-28T01:13:53.166Z,23.61
2019-02-28T01:14:53.109Z,23.58
2019-02-28T01:15:53.072Z,23.58
2019-02-28T01:16:53.651Z,23.51
2019-02-28T01:17:53.086Z,23.40
2019-02-28T01:18:52.962Z,23.48
2019-02-28T01:19:52.906Z,23.41
2019-02-28T01:20:52.849Z,23.44
2019-02-28T01:21:55.385Z,23.46
2019-02-28T01:22:52.758Z,23.40
2019-02-28T01:23:52.824Z,23.39
2019-02-28T01:24:52.663Z,23.37
2019-02-28T01:25:52.634Z,23.47
2019-02-28T01:26:52.572Z,23.40
2019-02-28T01:27:53.087Z,23.43
2019-02-28T01:28:52.493Z,23.44
2019-02-28T01:29:52.536Z,23.54
2019-02-28T01:30:52.412Z,23.56
2019-02-28T01:31:52.350Z,23.55
2019-02-28T01:32:52.302Z,23.55
2019-02-28T01:33:52.245Z,23.43
2019-02-28T01:34:52.212Z,23.46
2019-02-28T01:35:52.278Z,23.39
2019-02-28T01:36:52.118Z,23.41
2019-02-28T01:37:52.977Z,23.40
2019-02-28T01:38:52.022Z,23.44
2019-02-28T01:39:51.993Z,23.46
2019-02-28T01:40:51.927Z,23.56
2019-02-28T01:41:51.903Z,23.56
2019-02-28T01:42:54.891Z,23.62
2019-02-28T01:43:51.803Z,23.71
2019-02-28T01:44:51.768Z,23.77
2019-02-28T01:45:51.703Z,23.77
2019-02-28T01:46:51.662Z,23.74
2019-02-28T01:47:52.408Z,23.76
2019-02-28T01:48:54.545Z,23.69
2019-02-28T01:49:51.529Z,23.74
2019-02-28T01:50:51.493Z,23.78
2019-02-28T01:51:51.524Z,23.71
2019-02-28T01:52:51.393Z,23.74
2019-02-28T01:53:53.586Z,23.63
2019-02-28T01:54:51.317Z,23.58
2019-02-28T01:55:51.258Z,23.66
2019-02-28T01:56:51.210Z,23.63
2019-02-28T01:57:51.154Z,23.74
2019-02-28T01:58:51.161Z,23.66
2019-02-28T01:59:52.932Z,23.68
2019-02-28T02:00:51.042Z,23.74
2019-02-28T02:01:50.972Z,23.66
2019-02-28T02:02:50.927Z,23.74
2019-02-28T02:03:50.894Z,23.76
2019-02-28T02:04:50.836Z,23.76
2019-02-28T02:05:51.735Z,23.71
2019-02-28T02:06:50.757Z,23.69
2019-02-28T02:07:50.709Z,23.66
2019-02-28T02:08:50.655Z,23.81
2019-02-28T02:09:50.609Z,23.74
2019-02-28T02:10:54.961Z,23.74
2019-02-28T02:11:50.640Z,23.76
2019-02-28T02:12:50.501Z,23.78
2019-02-28T02:13:50.442Z,23.73
2019-02-28T02:14:50.384Z,23.73
2019-02-28T02:15:51.394Z,23.74
2019-02-28T02:16:50.291Z,23.80
2019-02-28T02:17:50.359Z,23.83
2019-02-28T02:18:50.213Z,23.65
2019-02-28T02:19:52.186Z,23.78
2019-02-28T02:20:50.123Z,23.76
2019-02-28T02:21:50.079Z,23.71
2019-02-28T02:22:50.032Z,23.73
2019-02-28T02:23:53.114Z,23.69
2019-02-28T02:24:49.950Z,23.66
2019-02-28T02:25:49.896Z,23.68
2019-02-28T02:26:49.846Z,23.73
2019-02-28T02:27:52.805Z,23.77
2019-02-28T02:28:49.747Z,23.77
2019-02-28T02:29:49.826Z,23.76
2019-02-28T02:30:51.024Z,23.77
2019-02-28T02:31:49.625Z,23.68
2019-02-28T02:32:49.575Z,23.73
2019-02-28T02:33:52.398Z,23.59
2019-02-28T02:34:49.495Z,23.68
2019-02-28T02:35:49.558Z,23.68
2019-02-28T02:36:52.956Z,23.68
2019-02-28T02:37:49.362Z,23.68
2019-02-28T02:38:49.301Z,23.71
2019-02-28T02:39:50.222Z,23.69
2019-02-28T02:40:49.210Z,23.69
2019-02-28T02:41:49.282Z,23.68
2019-02-28T02:42:50.086Z,23.71
2019-02-28T02:43:49.083Z,23.73
2019-02-28T02:44:49.032Z,23.78
2019-02-28T02:45:48.999Z,23.68
2019-02-28T02:46:55.448Z,23.73
2019-02-28T02:47:48.994Z,23.68
2019-02-28T02:48:48.853Z,23.73
2019-02-28T02:49:56.205Z,23.77
2019-02-28T02:50:48.773Z,23.61
2019-02-28T02:51:50.516Z,23.73
2019-02-28T02:52:48.657Z,23.65
2019-02-28T02:53:48.733Z,23.69
2019-02-28T02:54:52.072Z,23.77
2019-02-28T02:55:48.536Z,23.69
2019-02-28T02:56:48.488Z,23.73
2019-02-28T02:57:51.657Z,23.76
2019-02-28T02:58:48.397Z,23.69
2019-02-28T02:59:48.453Z,23.69
2019-02-28T03:00:51.307Z,23.69
2019-02-28T03:01:48.261Z,23.71
2019-02-28T03:02:48.210Z,23.74
2019-02-28T03:03:48.158Z,23.65
2019-02-28T03:04:48.145Z,23.69
2019-02-28T03:05:48.086Z,23.74
2019-02-28T03:06:48.035Z,23.69
2019-02-28T03:07:47.989Z,23.65
2019-02-28T03:08:47.944Z,23.63
2019-02-28T03:09:47.909Z,23.65
2019-02-28T03:10:51.825Z,23.58
2019-02-28T03:11:47.796Z,23.54
2019-02-28T03:12:47.761Z,23.51
2019-02-28T03:13:47.759Z,23.46
2019-02-28T03:14:48.682Z,23.51
2019-02-28T03:15:47.622Z,23.55
2019-02-28T03:16:47.694Z,23.54
2019-02-28T03:17:48.741Z,23.50
2019-02-28T03:18:47.486Z,23.54
2019-02-28T03:19:47.453Z,23.54
2019-02-28T03:20:47.395Z,23.44
2019-02-28T03:21:51.014Z,23.48
2019-02-28T03:22:47.408Z,23.48
2019-02-28T03:23:47.251Z,23.58
2019-02-28T03:24:50.487Z,23.61
2019-02-28T03:25:47.159Z,23.59
2019-02-28T03:26:47.127Z,23.65
2019-02-28T03:27:47.097Z,23.62
2019-02-28T03:28:47.135Z,23.63
2019-02-28T03:29:46.994Z,23.65
2019-02-28T03:30:46.937Z,23.61
2019-02-28T03:31:55.150Z,23.56
2019-02-28T03:32:46.841Z,23.46
2019-02-28T03:33:46.817Z,23.50
2019-02-28T03:34:54.777Z,23.43
2019-02-28T03:35:46.725Z,23.41
2019-02-28T03:36:55.290Z,23.43
2019-02-28T03:37:46.634Z,23.44
2019-02-28T03:38:49.661Z,23.41
2019-02-28T03:39:46.523Z,23.47
2019-02-28T03:40:46.506Z,23.46
2019-02-28T03:41:49.078Z,23.54
2019-02-28T03:42:46.398Z,23.48
2019-02-28T03:43:46.361Z,23.55
2019-02-28T03:44:46.296Z,23.50
2019-02-28T03:45:46.262Z,23.39
2019-02-28T03:46:47.793Z,23.39
2019-02-28T03:47:46.187Z,23.40
2019-02-28T03:48:46.138Z,23.40
2019-02-28T03:49:49.816Z,23.40
2019-02-28T03:50:46.047Z,23.40
2019-02-28T03:51:46.106Z,23.41
2019-02-28T03:52:45.932Z,23.36
2019-02-28T03:53:45.898Z,23.27
2019-02-28T03:54:45.854Z,23.27
2019-02-28T03:55:45.809Z,23.25
2019-02-28T03:56:51.354Z,23.13
2019-02-28T03:57:45.715Z,23.17
2019-02-28T03:58:45.659Z,23.24
2019-02-28T03:59:45.634Z,23.15
2019-02-28T04:00:45.584Z,23.24
2019-02-28T04:01:46.563Z,23.28
2019-02-28T04:02:45.490Z,23.20
2019-02-28T04:03:45.562Z,23.15
2019-02-28T04:04:50.217Z,23.20
2019-02-28T04:05:45.369Z,23.13
2019-02-28T04:06:45.303Z,23.05
2019-02-28T04:07:52.859Z,23.05
2019-02-28T04:08:45.213Z,23.08
2019-02-28T04:09:45.413Z,23.08
2019-02-28T04:10:45.122Z,23.08
2019-02-28T04:11:45.075Z,22.96
2019-02-28T04:12:46.953Z,22.98
2019-02-28T04:13:44.990Z,22.99
2019-02-28T04:14:44.930Z,23.06
2019-02-28T04:16:01.469Z,23.08
2019-02-28T04:16:44.851Z,23.06
2019-02-28T04:17:44.829Z,23.12
2019-02-28T04:18:46.617Z,23.12
2019-02-28T04:19:44.702Z,23.10
2019-02-28T04:20:44.665Z,23.03
2019-02-28T04:21:46.660Z,23.13
2019-02-28T04:22:44.588Z,23.15
2019-02-28T04:23:44.543Z,23.10
2019-02-28T04:24:46.300Z,22.98
2019-02-28T04:25:44.458Z,23.06
2019-02-28T04:26:44.397Z,23.08
2019-02-28T04:27:44.401Z,23.02
2019-02-28T04:28:44.312Z,23.08
2019-02-28T04:29:44.259Z,23.00
2019-02-28T04:30:44.213Z,22.98
2019-02-28T04:31:44.221Z,22.91
2019-02-28T04:32:44.121Z,22.98
2019-02-28T04:33:44.163Z,22.98
2019-02-28T04:34:45.848Z,22.88
2019-02-28T04:35:43.972Z,22.88
2019-02-28T04:36:43.925Z,22.85
2019-02-28T04:37:46.746Z,22.84
2019-02-28T04:38:43.834Z,22.85
2019-02-28T04:39:43.892Z,22.88
2019-02-28T04:40:43.755Z,22.85
2019-02-28T04:41:43.709Z,22.90
2019-02-28T04:42:43.651Z,22.91
2019-02-28T04:43:44.370Z,22.93
2019-02-28T04:44:43.560Z,22.85
2019-02-28T04:45:43.614Z,22.88
2019-02-28T04:46:43.482Z,22.85
2019-02-28T04:47:43.444Z,22.85
2019-02-28T04:48:45.703Z,22.75
2019-02-28T04:49:43.343Z,22.73
2019-02-28T04:50:43.298Z,22.68
2019-02-28T04:51:43.252Z,22.72
2019-02-28T04:52:47.932Z,22.70
2019-02-28T04:53:43.160Z,22.75
2019-02-28T04:54:43.116Z,22.66
2019-02-28T04:55:43.057Z,22.63
2019-02-28T04:56:45.525Z,22.65
2019-02-28T04:57:43.066Z,22.60
2019-02-28T04:58:42.920Z,22.78
2019-02-28T04:59:42.874Z,22.65
2019-02-28T05:00:42.830Z,22.66
2019-02-28T05:01:45.213Z,22.62
2019-02-28T05:02:42.754Z,22.63
2019-02-28T05:03:42.702Z,22.73
2019-02-28T05:04:42.645Z,22.70
2019-02-28T05:05:46.390Z,22.70
2019-02-28T05:06:42.554Z,22.68
2019-02-28T05:07:42.522Z,22.69
2019-02-28T05:08:42.475Z,22.68
2019-02-28T05:09:45.214Z,22.62
2019-02-28T05:10:42.370Z,22.54
2019-02-28T05:11:42.325Z,22.51
2019-02-28T05:12:42.304Z,22.66
2019-02-28T05:13:42.254Z,22.62
2019-02-28T05:14:42.188Z,22.68
2019-02-28T05:15:42.242Z,22.70
2019-02-28T05:16:47.181Z,22.66
2019-02-28T05:17:42.058Z,22.65
2019-02-28T05:18:42.017Z,22.72
2019-02-28T05:19:41.983Z,22.60
2019-02-28T05:20:44.789Z,22.69
2019-02-28T05:21:41.967Z,22.68
2019-02-28T05:22:41.849Z,22.54
2019-02-28T05:23:41.775Z,22.60
2019-02-28T05:24:42.659Z,22.60
2019-02-28T05:25:41.708Z,22.54
2019-02-28T05:26:41.637Z,22.51
2019-02-28T05:27:41.719Z,22.55
2019-02-28T05:28:41.576Z,22.55
2019-02-28T05:29:44.023Z,22.51
2019-02-28T05:30:41.613Z,22.50
2019-02-28T05:31:41.422Z,22.45
2019-02-28T05:32:41.374Z,22.51
2019-02-28T05:33:41.929Z,22.57
2019-02-28T05:34:41.284Z,22.53
2019-02-28T05:35:41.250Z,22.53
2019-02-28T05:36:41.179Z,22.60
2019-02-28T05:37:46.969Z,22.51
2019-02-28T05:38:41.090Z,22.57
2019-02-28T05:39:41.066Z,22.43
2019-02-28T05:40:41.525Z,22.51
2019-02-28T05:41:40.960Z,22.51
2019-02-28T05:42:40.913Z,22.45
2019-02-28T05:43:40.885Z,22.43
2019-02-28T05:44:41.010Z,22.43
2019-02-28T05:45:40.781Z,22.44
2019-02-28T05:46:40.721Z,22.51
2019-02-28T05:47:46.243Z,22.54
2019-02-28T05:48:40.650Z,22.45
2019-02-28T05:49:40.966Z,22.44
2019-02-28T05:50:40.638Z,22.43
2019-02-28T05:51:40.513Z,22.36
2019-02-28T05:52:40.473Z,22.39
2019-02-28T05:53:41.525Z,22.45
2019-02-28T05:54:40.378Z,22.47
2019-02-28T05:55:40.309Z,22.55
2019-02-28T05:56:40.383Z,22.44
2019-02-28T05:57:43.297Z,22.41
2019-02-28T05:58:40.170Z,22.41
2019-02-28T05:59:40.126Z,22.45
2019-02-28T06:00:40.090Z,22.41
2019-02-28T06:01:40.033Z,22.39
2019-02-28T06:02:40.098Z,22.43
2019-02-28T06:03:39.962Z,22.51
2019-02-28T06:04:39.909Z,22.50
2019-02-28T06:05:39.850Z,22.57
2019-02-28T06:06:39.819Z,22.54
2019-02-28T06:07:39.757Z,22.51
2019-02-28T06:08:40.022Z,22.50
2019-02-28T06:09:39.687Z,22.65
2019-02-28T06:10:39.633Z,22.59
2019-02-28T06:11:39.591Z,22.70
2019-02-28T06:12:40.545Z,22.63
2019-02-28T06:13:39.501Z,22.70
2019-02-28T06:14:39.436Z,22.70
2019-02-28T06:15:39.390Z,22.65
2019-02-28T06:16:39.366Z,22.63
2019-02-28T06:17:39.298Z,22.51
2019-02-28T06:18:39.272Z,22.60
2019-02-28T06:19:40.248Z,22.62
2019-02-28T06:20:39.169Z,22.59
2019-02-28T06:21:39.136Z,22.65
2019-02-28T06:22:39.075Z,22.69
2019-02-28T06:23:40.777Z,22.76
2019-02-28T06:24:39.001Z,22.70
2019-02-28T06:25:38.943Z,22.70
2019-02-28T06:26:38.898Z,22.76
2019-02-28T06:27:41.792Z,22.76
2019-02-28T06:28:38.816Z,22.78
2019-02-28T06:29:38.774Z,22.70
2019-02-28T06:30:41.541Z,22.78
2019-02-28T06:31:38.757Z,22.81
2019-02-28T06:32:38.628Z,22.87
2019-02-28T06:33:38.567Z,22.87
2019-02-28T06:34:39.481Z,22.85
2019-02-28T06:35:38.486Z,22.88
2019-02-28T06:36:38.452Z,22.85
2019-02-28T06:37:39.204Z,22.85
2019-02-28T06:38:38.337Z,22.87
2019-02-28T06:39:38.291Z,22.88
2019-02-28T06:40:38.245Z,22.84
2019-02-28T06:41:39.903Z,22.91
2019-02-28T06:42:38.180Z,22.98
2019-02-28T06:43:38.208Z,22.99
2019-02-28T06:44:38.062Z,23.00
2019-02-28T06:45:38.029Z,22.90
2019-02-28T06:46:39.869Z,22.85
2019-02-28T06:47:39.053Z,22.88
2019-02-28T06:48:37.878Z,22.88
2019-02-28T06:49:41.902Z,22.88
2019-02-28T06:50:37.796Z,22.88
2019-02-28T06:51:37.742Z,22.81
2019-02-28T06:52:37.707Z,22.87
2019-02-28T06:53:37.661Z,22.84
2019-02-28T06:54:39.846Z,22.91
2019-02-28T06:55:37.679Z,22.87
2019-02-28T06:56:37.522Z,22.81
2019-02-28T06:57:37.483Z,22.83
2019-02-28T06:58:37.438Z,22.76
2019-02-28T06:59:39.175Z,22.81
2019-02-28T07:00:37.340Z,22.76
2019-02-28T07:01:37.398Z,22.78
2019-02-28T07:02:37.242Z,22.81
2019-02-28T07:03:38.816Z,22.76
2019-02-28T07:04:37.155Z,22.76
2019-02-28T07:05:37.113Z,22.78
2019-02-28T07:06:37.066Z,22.76
2019-02-28T07:07:37.125Z,22.84
2019-02-28T07:08:36.976Z,22.75
2019-02-28T07:09:37.261Z,22.75
2019-02-28T07:10:36.885Z,22.72
2019-02-28T07:11:36.839Z,22.78
2019-02-28T07:12:36.795Z,22.75
2019-02-28T07:13:40.001Z,22.75
2019-02-28T07:14:36.701Z,22.80
2019-02-28T07:15:36.643Z,22.72
2019-02-28T07:16:37.939Z,22.76
2019-02-28T07:17:36.552Z,22.80
2019-02-28T07:18:36.520Z,22.75
2019-02-28T07:19:36.561Z,22.75
2019-02-28T07:20:36.427Z,22.81
2019-02-28T07:21:42.967Z,22.78
2019-02-28T07:22:36.355Z,22.78
2019-02-28T07:23:36.298Z,22.80
2019-02-28T07:24:37.546Z,22.80
2019-02-28T07:25:36.211Z,22.68
2019-02-28T07:26:36.168Z,22.68
2019-02-28T07:27:36.110Z,22.70
2019-02-28T07:28:37.437Z,22.66
2019-02-28T07:29:36.016Z,22.73
2019-02-28T07:30:36.068Z,22.70
2019-02-28T07:31:35.911Z,22.62
2019-02-28T07:32:35.878Z,22.76
2019-02-28T07:33:35.832Z,22.70
2019-02-28T07:34:35.773Z,22.69
2019-02-28T07:35:36.898Z,22.81
2019-02-28T07:36:35.790Z,22.73
2019-02-28T07:37:35.644Z,22.62
2019-02-28T07:38:35.628Z,22.70
2019-02-28T07:39:36.524Z,22.68
2019-02-28T07:40:35.507Z,22.66
2019-02-28T07:41:35.476Z,22.70
2019-02-28T07:42:37.598Z,22.66
2019-02-28T07:43:35.374Z,22.70
2019-02-28T07:44:37.947Z,22.62
2019-02-28T07:45:35.269Z,22.70
2019-02-28T07:46:35.250Z,22.68
2019-02-28T07:47:35.193Z,22.66
2019-02-28T07:48:35.231Z,22.68
2019-02-28T07:49:36.773Z,22.62
2019-02-28T07:50:35.048Z,22.57
2019-02-28T07:51:35.018Z,22.60
2019-02-28T07:52:34.948Z,22.63
2019-02-28T07:53:34.902Z,22.65
2019-02-28T07:54:34.869Z,22.63
2019-02-28T07:55:34.823Z,22.63
2019-02-28T07:56:34.779Z,22.54
2019-02-28T07:57:34.743Z,22.57
2019-02-28T07:58:34.685Z,22.53
2019-02-28T07:59:40.668Z,22.53
2019-02-28T08:00:34.590Z,22.51
2019-02-28T08:01:34.557Z,22.54
2019-02-28T08:02:35.729Z,22.55
2019-02-28T08:03:34.453Z,22.54
2019-02-28T08:04:34.399Z,22.59
2019-02-28T08:05:34.366Z,22.62
2019-02-28T08:06:36.361Z,22.68
2019-02-28T08:07:34.274Z,22.66
2019-02-28T08:08:34.226Z,22.59
2019-02-28T08:09:36.766Z,22.60
2019-02-28T08:10:34.134Z,22.55
2019-02-28T08:11:34.078Z,22.65
2019-02-28T08:12:34.139Z,22.55
2019-02-28T08:13:34.641Z,22.66
2019-02-28T08:14:33.939Z,22.63
2019-02-28T08:15:33.915Z,22.63
2019-02-28T08:16:34.755Z,22.68
2019-02-28T08:17:35.388Z,22.53
2019-02-28T08:18:33.868Z,22.60
2019-02-28T08:19:33.722Z,22.57
2019-02-28T08:20:34.727Z,22.51
2019-02-28T08:21:33.639Z,22.50
2019-02-28T08:22:33.589Z,22.50
2019-02-28T08:23:33.541Z,22.53
2019-02-28T08:24:35.896Z,22.50
2019-02-28T08:25:33.455Z,22.36
2019-02-28T08:26:33.401Z,22.36
2019-02-28T08:27:33.354Z,22.28
2019-02-28T08:28:36.707Z,22.33
2019-02-28T08:29:33.262Z,22.38
2019-02-28T08:30:33.305Z,22.23
2019-02-28T08:31:33.162Z,22.28
2019-02-28T08:32:33.895Z,22.29
2019-02-28T08:33:33.093Z,22.32
2019-02-28T08:34:33.023Z,22.29
2019-02-28T08:35:34.654Z,22.30
2019-02-28T08:36:33.050Z,22.33
2019-02-28T08:37:32.883Z,22.29
2019-02-28T08:38:34.287Z,22.28
2019-02-28T08:39:32.859Z,22.20
2019-02-28T08:40:32.770Z,22.17
2019-02-28T08:41:32.711Z,22.22
2019-02-28T08:42:38.687Z,22.18
2019-02-28T08:43:32.620Z,22.25
2019-02-28T08:44:32.579Z,22.29
2019-02-28T08:45:33.357Z,22.23
2019-02-28T08:46:32.481Z,22.25
2019-02-28T08:47:32.423Z,22.14
2019-02-28T08:48:34.318Z,22.28
2019-02-28T08:49:32.355Z,22.29
2019-02-28T08:50:32.298Z,22.23
2019-02-28T08:51:32.248Z,22.25
2019-02-28T08:52:32.203Z,22.36
2019-02-28T08:53:32.159Z,22.35
2019-02-28T08:54:32.229Z,22.43
2019-02-28T08:55:32.076Z,22.41
2019-02-28T08:56:32.317Z,22.39
2019-02-28T08:57:31.987Z,22.55
2019-02-28T08:58:31.928Z,22.47
2019-02-28T08:59:31.888Z,22.53
2019-02-28T09:00:33.231Z,22.50
2019-02-28T09:01:31.778Z,22.53
2019-02-28T09:02:31.741Z,22.53
2019-02-28T09:03:31.699Z,22.57
2019-02-28T09:04:40.752Z,22.65
2019-02-28T09:05:31.606Z,22.68
2019-02-28T09:06:31.657Z,22.63
2019-02-28T09:07:31.502Z,22.70
2019-02-28T09:08:31.481Z,22.59
2019-02-28T09:09:31.687Z,22.63
2019-02-28T09:10:31.377Z,22.63
2019-02-28T09:11:31.340Z,22.60
2019-02-28T09:12:33.367Z,22.68
2019-02-28T09:13:31.254Z,22.54
2019-02-28T09:14:31.189Z,22.59
2019-02-28T09:15:31.433Z,22.54
2019-02-28T09:16:31.100Z,22.48
2019-02-28T09:17:31.056Z,22.47
2019-02-28T09:18:31.005Z,22.38
2019-02-28T09:19:32.525Z,22.43
2019-02-28T09:20:30.920Z,22.41
2019-02-28T09:21:30.859Z,22.51
2019-02-28T09:22:30.822Z,22.50
2019-02-28T09:23:30.768Z,22.53
2019-02-28T09:24:30.838Z,22.43
2019-02-28T09:25:30.700Z,22.47
2019-02-28T09:26:31.299Z,22.48
2019-02-28T09:27:30.605Z,22.54
2019-02-28T09:28:30.559Z,22.55
2019-02-28T09:29:30.506Z,22.51
2019-02-28T09:30:30.739Z,22.50
2019-02-28T09:31:30.413Z,22.53
2019-02-28T09:32:30.367Z,22.51
2019-02-28T09:33:30.318Z,22.50
2019-02-28T09:34:31.456Z,22.43
2019-02-28T09:35:30.232Z,22.36
2019-02-28T09:36:30.282Z,22.38
2019-02-28T09:37:30.566Z,22.32
2019-02-28T09:38:30.101Z,22.32
2019-02-28T09:39:30.053Z,22.32
2019-02-28T09:40:30.587Z,22.22
2019-02-28T09:41:29.965Z,22.15
2019-02-28T09:42:30.019Z,22.23
2019-02-28T09:43:29.870Z,22.18
2019-02-28T09:44:31.462Z,22.25
2019-02-28T09:45:29.769Z,22.13
2019-02-28T09:46:29.731Z,22.29
2019-02-28T09:47:29.665Z,22.23
2019-02-28T09:48:30.699Z,22.25
2019-02-28T09:49:29.597Z,22.20
2019-02-28T09:50:29.528Z,22.22
2019-02-28T09:51:31.949Z,22.20
2019-02-28T09:52:29.448Z,22.18
2019-02-28T09:53:29.409Z,22.17
2019-02-28T09:54:29.465Z,22.23
2019-02-28T09:55:34.282Z,22.00
2019-02-28T09:56:29.258Z,22.00
2019-02-28T09:57:30.248Z,21.93
2019-02-28T09:58:30.049Z,22.02
2019-02-28T09:59:29.125Z,21.99
2019-02-28T10:00:29.179Z,22.07
2019-02-28T10:01:29.021Z,22.08
2019-02-28T10:02:28.991Z,21.99
2019-02-28T10:03:28.936Z,22.00
2019-02-28T10:04:30.544Z,21.92
2019-02-28T10:05:28.858Z,21.79
2019-02-28T10:06:28.793Z,21.85
2019-02-28T10:07:28.771Z,21.95
2019-02-28T10:08:28.734Z,21.92
2019-02-28T10:09:28.664Z,22.08
2019-02-28T10:10:28.630Z,22.14
2019-02-28T10:11:31.770Z,22.22
2019-02-28T10:12:28.624Z,22.17
2019-02-28T10:13:28.508Z,22.13
2019-02-28T10:14:28.768Z,22.18
2019-02-28T10:15:28.406Z,22.13
2019-02-28T10:16:28.351Z,22.22
2019-02-28T10:17:28.914Z,22.22
2019-02-28T10:18:28.355Z,22.32
2019-02-28T10:19:28.192Z,22.36
2019-02-28T10:20:28.646Z,22.44
2019-02-28T10:21:28.101Z,22.39
2019-02-28T10:22:28.077Z,22.39
2019-02-28T10:23:28.016Z,22.39
2019-02-28T10:24:28.391Z,22.41
2019-02-28T10:25:27.937Z,22.35
2019-02-28T10:26:27.884Z,22.36
2019-02-28T10:27:27.836Z,22.47
2019-02-28T10:28:27.801Z,22.47
2019-02-28T10:29:27.752Z,22.39
2019-02-28T10:30:31.734Z,22.38
2019-02-28T10:31:36.240Z,22.29
2019-02-28T10:32:27.608Z,22.23
2019-02-28T10:33:27.576Z,22.14
2019-02-28T10:34:27.522Z,22.23
2019-02-28T10:35:27.479Z,22.25
2019-02-28T10:36:27.537Z,22.22
2019-02-28T10:37:27.415Z,22.07
2019-02-28T10:38:29.454Z,22.17
2019-02-28T10:39:27.308Z,22.22
2019-02-28T10:40:27.252Z,22.23
2019-02-28T10:41:28.035Z,22.20
2019-02-28T10:42:27.149Z,22.26
2019-02-28T10:43:27.110Z,22.32
2019-02-28T10:44:30.618Z,22.22
2019-02-28T10:45:27.014Z,22.29
2019-02-28T10:46:26.955Z,22.35
2019-02-28T10:47:29.608Z,22.36
2019-02-28T10:48:26.977Z,22.50
2019-02-28T10:49:26.838Z,22.57
2019-02-28T10:50:32.095Z,22.48
2019-02-28T10:51:26.742Z,22.55
2019-02-28T10:52:28.398Z,22.48
2019-02-28T10:53:26.636Z,22.54
2019-02-28T10:54:26.614Z,22.65
2019-02-28T10:55:26.556Z,22.63
2019-02-28T10:56:31.720Z,22.54
2019-02-28T10:57:26.462Z,22.51
2019-02-28T10:58:26.418Z,22.43
2019-02-28T10:59:26.388Z,22.32
2019-02-28T11:00:29.348Z,22.32
2019-02-28T11:01:26.268Z,22.32
2019-02-28T11:02:26.224Z,22.23
2019-02-28T11:03:31.830Z,22.23
2019-02-28T11:04:27.562Z,22.23
2019-02-28T11:05:27.542Z,22.22
2019-02-28T11:06:28.285Z,22.23
2019-02-28T11:07:26.000Z,22.26
2019-02-28T11:08:25.963Z,22.20
2019-02-28T11:09:25.909Z,22.18
2019-02-28T11:10:25.867Z,22.13
2019-02-28T11:11:25.832Z,22.17
2019-02-28T11:12:25.866Z,22.10
2019-02-28T11:13:28.587Z,22.23
2019-02-28T11:14:25.697Z,22.17
2019-02-28T11:15:25.631Z,22.08
2019-02-28T11:16:25.607Z,22.08
2019-02-28T11:17:25.549Z,22.14
2019-02-28T11:18:25.610Z,22.15
2019-02-28T11:19:25.478Z,22.15
2019-02-28T11:20:26.222Z,22.11
2019-02-28T11:21:25.373Z,22.08
2019-02-28T11:22:25.350Z,22.04
2019-02-28T11:23:25.262Z,22.08
2019-02-28T11:24:27.061Z,22.11
2019-02-28T11:25:25.185Z,22.14
2019-02-28T11:26:25.132Z,22.11
2019-02-28T11:27:25.077Z,22.17
2019-02-28T11:28:27.914Z,22.25
2019-02-28T11:29:26.195Z,22.28
2019-02-28T11:30:26.232Z,22.36
2019-02-28T11:31:26.191Z,22.35
2019-02-28T11:32:26.419Z,22.29
2019-02-28T11:33:26.095Z,22.32
2019-02-28T11:34:26.054Z,22.11
2019-02-28T11:35:26.106Z,22.23
2019-02-28T11:36:25.952Z,22.28
2019-02-28T11:37:25.918Z,22.33
2019-02-28T11:38:25.844Z,22.23
2019-02-28T11:39:27.575Z,22.18
2019-02-28T11:40:25.765Z,22.18
2019-02-28T11:41:25.829Z,22.15
2019-02-28T11:42:28.009Z,22.00
2019-02-28T11:43:26.788Z,21.92
2019-02-28T11:44:25.589Z,21.88
2019-02-28T11:45:25.686Z,21.95
2019-02-28T11:46:25.491Z,22.02
2019-02-28T11:47:25.555Z,22.14
2019-02-28T11:48:25.394Z,22.10
2019-02-28T11:49:25.613Z,22.14
2019-02-28T11:50:25.294Z,22.17
2019-02-28T11:51:25.277Z,22.20
2019-02-28T11:52:27.402Z,22.17
2019-02-28T11:53:25.268Z,22.28
2019-02-28T11:54:25.108Z,22.25
2019-02-28T11:55:27.051Z,22.30
2019-02-28T11:56:25.544Z,22.39
2019-02-28T11:57:24.971Z,22.39
2019-02-28T11:58:24.938Z,22.59
2019-02-28T11:59:25.404Z,22.57
2019-02-28T12:00:25.056Z,22.54
2019-02-28T12:01:24.829Z,22.62
2019-02-28T12:02:24.758Z,22.53
2019-02-28T12:03:24.717Z,22.57
2019-02-28T12:04:24.662Z,22.39
2019-02-28T12:05:24.706Z,22.39
2019-02-28T12:06:25.734Z,22.35
2019-02-28T12:07:24.526Z,22.30
2019-02-28T12:08:24.488Z,22.28
2019-02-28T12:09:24.421Z,22.26
2019-02-28T12:10:26.901Z,22.26
2019-02-28T12:11:25.153Z,22.28
2019-02-28T12:12:24.293Z,22.22
2019-02-28T12:13:24.251Z,22.22
2019-02-28T12:14:26.445Z,22.14
2019-02-28T12:15:24.148Z,22.22
2019-02-28T12:16:24.120Z,22.06
2019-02-28T12:17:25.577Z,22.00
2019-02-28T12:18:26.079Z,21.91
2019-02-28T12:19:24.006Z,21.89
2019-02-28T12:20:26.441Z,21.99
2019-02-28T12:21:23.888Z,21.91
2019-02-28T12:22:23.851Z,21.85
2019-02-28T12:23:24.411Z,21.91
2019-02-28T12:24:23.754Z,21.91
2019-02-28T12:25:23.714Z,21.89
2019-02-28T12:26:23.669Z,21.95
2019-02-28T12:27:24.405Z,21.85
2019-02-28T12:28:23.575Z,21.89
2019-02-28T12:29:23.620Z,21.91
2019-02-28T12:30:25.186Z,21.89
2019-02-28T12:31:23.441Z,21.89
2019-02-28T12:32:23.396Z,21.89
2019-02-28T12:33:23.612Z,21.92
2019-02-28T12:34:23.298Z,21.91
2019-02-28T12:35:27.206Z,21.92
2019-02-28T12:36:23.418Z,21.88
2019-02-28T12:37:23.176Z,21.69
2019-02-28T12:38:25.959Z,21.70
2019-02-28T12:39:23.675Z,21.61
2019-02-28T12:40:23.022Z,21.69
2019-02-28T12:41:25.181Z,21.79
2019-02-28T12:42:23.133Z,21.82
2019-02-28T12:43:22.895Z,21.89
2019-02-28T12:44:22.841Z,21.92
2019-02-28T12:45:24.361Z,21.99
2019-02-28T12:46:22.746Z,21.89
2019-02-28T12:47:22.788Z,21.82
2019-02-28T12:48:22.658Z,21.75
2019-02-28T12:49:23.147Z,21.77
2019-02-28T12:50:22.581Z,21.69
2019-02-28T12:51:22.518Z,21.76
2019-02-28T12:52:22.460Z,21.70